.
WxDataArchive / Data Records for 2009-02-24
2009-02-23 February 2009 2009-02-25

Data Records for Tuesday, 24 February 2009

Time	Temp	Chill	HIndex	Humid	Dewpt	 Wind 	HiWind	WindDir	Rain 	Barom 
-----	----	-----	------	-----	-----	------	------	-------	-----	----- 
00:00	12.3	12.3	12.3	85	8.7	0	0	---	0.00	30.568 
00:05	12.3	12.3	12.3	85	8.7	0	0	---	0.00	30.566 
00:10	12.3	12.3	12.3	85	8.7	0	0	---	0.00	30.567 
00:15	12.3	12.3	12.3	85	8.7	0	0	---	0.00	30.564 
00:20	12.1	12.1	12.1	85	8.5	0	0	---	0.00	30.564 
00:25	11.9	11.9	11.9	85	8.3	0	0	---	0.00	30.565 
00:30	11.7	11.7	11.7	85	8.1	0	0	---	0.00	30.562 
00:35	11.7	11.7	11.7	85	8.1	0	0	---	0.00	30.559 
00:40	11.6	11.6	11.6	85	8.0	0	0	---	0.00	30.558 
00:45	11.6	11.6	11.6	85	8.0	0	0	---	0.00	30.559 
00:50	11.4	11.4	11.4	85	7.8	0	0	---	0.00	30.561 
00:55	11.4	11.4	11.4	85	7.8	0	0	---	0.00	30.562 
01:00	11.4	11.4	11.4	86	8.0	0	0	---	0.00	30.561 
01:05	11.6	11.6	11.6	86	8.2	0	0	---	0.00	30.563 
01:10	11.4	11.4	11.4	86	8.0	0	0	---	0.00	30.562 
01:15	11.4	11.4	11.4	86	8.0	0	0	---	0.00	30.563 
01:20	11.2	11.2	11.2	86	7.8	0	0	---	0.00	30.561 
01:25	11.2	11.2	11.2	86	7.8	0	0	---	0.00	30.560 
01:30	11.1	11.1	11.1	85	7.5	0	0	---	0.00	30.560 
01:35	10.7	10.7	10.7	86	7.4	0	0	---	0.00	30.557 
01:40	10.7	10.7	10.7	86	7.4	0	0	---	0.00	30.555 
01:45	10.7	10.7	10.7	86	7.4	0	0	---	0.00	30.555 
01:50	10.7	10.7	10.7	86	7.4	0	0	---	0.00	30.554 
01:55	10.5	10.5	10.5	86	7.2	0	0	---	0.00	30.552 
02:00	10.5	10.5	10.5	86	7.2	0	0	---	0.00	30.552 
02:05	10.7	10.7	10.7	86	7.4	0	0	---	0.00	30.551 
02:10	10.9	10.9	10.9	87	7.8	0	0	---	0.00	30.542 
02:15	11.1	11.1	11.1	87	8.0	0	0	---	0.00	30.538 
02:20	11.2	11.2	11.2	86	7.8	0	0	---	0.00	30.537 
02:25	11.4	11.4	11.4	86	8.0	0	0	---	0.00	30.538 
02:30	11.4	11.4	11.4	86	8.0	0	0	---	0.00	30.538 
02:35	11.6	11.6	11.6	87	8.5	0	0	---	0.00	30.535 
02:40	11.6	11.6	11.6	87	8.5	0	0	---	0.00	30.532 
02:45	11.7	11.7	11.7	87	8.6	0	0	---	0.00	30.524 
02:50	11.7	11.7	11.7	87	8.6	0	0	---	0.00	30.524 
02:55	11.9	11.9	11.9	87	8.8	0	0	---	0.00	30.530 
03:00	12.1	12.1	12.1	87	9.0	0	0	---	0.00	30.531 
03:05	12.4	12.4	12.4	87	9.3	0	0	---	0.00	30.536 
03:10	12.6	12.6	12.6	87	9.5	0	0	---	0.00	30.533 
03:15	12.6	12.6	12.6	87	9.5	0	0	---	0.00	30.532 
03:20	12.6	12.6	12.6	87	9.5	0	0	---	0.00	30.529 
03:25	12.6	12.6	12.6	87	9.5	0	0	---	0.00	30.525 
03:30	12.6	12.6	12.6	87	9.5	0	0	---	0.00	30.526 
03:35	12.8	12.8	12.8	87	9.7	0	0	---	0.00	30.529 
03:40	12.8	12.8	12.8	87	9.7	0	0	---	0.00	30.523 
03:45	12.8	12.8	12.8	87	9.7	0	0	---	0.00	30.522 
03:50	12.6	12.6	12.6	87	9.5	0	0	---	0.00	30.521 
03:55	12.6	12.6	12.6	87	9.5	0	0	---	0.00	30.520 
04:00	12.6	12.6	12.6	87	9.5	0	0	---	0.00	30.521 
04:05	12.6	12.6	12.6	87	9.5	0	0	---	0.00	30.521 
04:10	12.4	12.4	12.4	87	9.3	0	0	---	0.00	30.522 
04:15	12.4	12.4	12.4	87	9.3	0	0	---	0.00	30.522 
04:20	12.4	12.4	12.4	87	9.3	0	0	---	0.00	30.522 
04:25	12.4	12.4	12.4	87	9.3	0	0	---	0.00	30.521 
04:30	12.6	12.6	12.6	87	9.5	0	0	---	0.00	30.518 
04:35	12.8	12.8	12.8	87	9.7	0	0	---	0.00	30.516 
04:40	12.9	12.9	12.9	87	9.8	0	0	---	0.00	30.512 
04:45	13.1	13.1	13.1	87	10.0	0	0	---	0.00	30.507 
04:50	13.1	13.1	13.1	87	10.0	0	0	---	0.00	30.506 
04:55	13.3	13.3	13.3	87	10.2	0	0	---	0.00	30.504 
05:00	13.3	13.3	13.3	87	10.2	0	0	---	0.00	30.505 
05:05	13.3	13.3	13.3	87	10.2	0	0	---	0.00	30.506 
05:10	13.1	13.1	13.1	87	10.0	0	0	---	0.00	30.503 
05:15	13.1	13.1	13.1	87	10.0	0	0	---	0.00	30.503 
05:20	12.9	12.9	12.9	87	9.8	0	0	---	0.00	30.502 
05:25	12.8	12.8	12.8	87	9.7	0	0	---	0.00	30.504 
05:30	12.6	12.6	12.6	87	9.5	0	0	---	0.00	30.506 
05:35	12.4	12.4	12.4	86	9.0	0	0	---	0.00	30.506 
05:40	12.3	12.3	12.3	86	8.9	0	0	---	0.00	30.506 
05:45	12.1	12.1	12.1	86	8.7	0	0	---	0.00	30.506 
05:50	11.9	11.9	11.9	86	8.5	0	0	---	0.00	30.509 
05:55	11.7	11.7	11.7	86	8.3	0	0	---	0.00	30.513 
06:00	11.6	11.6	11.6	86	8.2	0	0	---	0.00	30.512 
06:05	11.4	11.4	11.4	86	8.0	0	0	---	0.00	30.517 
06:10	11.2	11.2	11.2	86	7.8	0	0	---	0.00	30.521 
06:15	11.1	11.1	11.1	86	7.7	0	0	---	0.00	30.524 
06:20	11.1	11.1	11.1	86	7.7	0	0	---	0.00	30.523 
06:25	10.9	10.9	10.9	86	7.6	0	0	---	0.00	30.524 
06:30	10.9	10.9	10.9	86	7.6	0	0	---	0.00	30.523 
06:35	10.7	10.7	10.7	86	7.4	0	0	---	0.00	30.522 
06:40	10.9	10.9	10.9	86	7.6	0	0	---	0.00	30.520 
06:45	10.9	10.9	10.9	86	7.6	0	0	---	0.00	30.515 
06:50	10.7	10.7	10.7	86	7.4	0	0	---	0.00	30.512 
06:55	11.1	11.1	11.1	87	8.0	0	0	---	0.00	30.511 
07:00	11.4	11.4	11.4	87	8.3	0	1	292	0.00	30.511 
07:05	11.4	11.4	11.4	87	8.3	0	0	---	0.00	30.515 
07:10	11.4	11.4	11.4	86	8.0	0	0	---	0.00	30.515 
07:15	11.2	11.2	11.2	86	7.8	0	0	---	0.00	30.514 
07:20	11.2	11.2	11.2	87	8.1	0	0	---	0.00	30.514 
07:25	11.4	11.4	11.4	87	8.3	0	0	---	0.00	30.515 
07:30	11.7	11.7	11.7	87	8.6	0	0	---	0.00	30.512 
07:35	11.9	11.9	11.9	87	8.8	0	1	292	0.00	30.513 
07:40	12.1	12.1	12.1	87	9.0	0	0	---	0.00	30.519 
07:45	12.1	12.1	12.1	87	9.0	0	0	---	0.00	30.521 
07:50	12.1	12.1	12.1	87	9.0	0	0	---	0.00	30.520 
07:55	12.3	12.3	12.3	87	9.2	0	0	---	0.00	30.523 
08:00	12.4	12.4	12.4	87	9.3	0	0	---	0.00	30.526 
08:05	12.8	12.8	12.8	87	9.7	0	0	---	0.00	30.530 
08:10	13.1	13.1	13.1	87	10.0	0	0	---	0.00	30.532 
08:15	13.6	13.6	13.6	88	10.7	0	0	---	0.00	30.531 
08:20	14.4	14.4	14.4	88	11.5	0	0	---	0.00	30.531 
08:25	15.4	15.4	15.4	89	12.8	0	1	292	0.00	30.527 
08:30	16.5	16.5	16.5	88	13.6	0	2	292	0.00	30.527 
08:35	17.2	17.2	17.2	88	14.3	0	2	292	0.00	30.525 
08:40	17.7	17.7	17.7	87	14.5	0	1	292	0.00	30.525 
08:45	18.1	18.1	18.1	87	14.9	0	1	292	0.00	30.526 
08:50	18.9	18.9	18.9	86	15.4	0	2	292	0.00	30.523 
08:55	19.5	19.5	19.5	85	15.7	0	2	90	0.00	30.522 
09:00	20.0	20.0	20.0	84	16.0	0	2	90	0.00	30.524 
09:05	20.6	20.6	20.6	82	16.0	1	3	90	0.00	30.524 
09:10	21.1	21.1	21.1	80	15.9	1	3	90	0.00	30.524 
09:15	21.8	21.8	21.8	77	15.7	1	3	90	0.00	30.524 
09:20	22.1	22.1	22.1	77	16.0	1	3	90	0.00	30.522 
09:25	22.4	22.4	22.4	77	16.3	0	2	90	0.00	30.521 
09:30	23.0	23.0	23.0	76	16.6	1	3	112	0.00	30.518 
09:35	23.9	23.9	23.9	74	16.8	1	4	112	0.00	30.516 
09:40	24.5	24.5	24.5	71	16.5	2	4	112	0.00	30.517 
09:45	24.8	24.8	24.8	70	16.4	1	3	112	0.00	30.517 
09:50	25.4	25.4	25.4	69	16.7	1	3	90	0.00	30.515 
09:55	25.8	25.8	25.8	67	16.4	1	4	112	0.00	30.514 
10:00	26.0	26.0	26.0	67	16.6	1	4	270	0.00	30.512 
10:05	26.4	26.4	26.4	66	16.6	1	6	90	0.00	30.510 
10:10	27.0	27.0	27.0	65	16.8	1	5	90	0.00	30.509 
10:15	27.6	27.6	27.6	63	16.7	1	5	90	0.00	30.504 
10:20	27.6	27.6	27.6	62	16.3	3	7	112	0.00	30.502 
10:25	27.6	27.6	27.6	62	16.3	2	6	112	0.00	30.501 
10:30	27.8	27.8	27.8	62	16.5	3	6	90	0.00	30.500 
10:35	28.1	28.1	28.1	63	17.2	2	7	90	0.00	30.498 
10:40	28.2	28.2	28.2	62	16.9	2	7	90	0.00	30.496 
10:45	28.1	28.1	28.1	63	17.2	2	10	68	0.00	30.488 
10:50	27.9	27.9	27.9	63	17.0	2	5	90	0.00	30.487 
10:55	28.4	28.4	28.4	62	17.1	2	5	112	0.01	30.486 
11:00	28.8	28.8	28.8	62	17.4	3	9	90	0.00	30.481 
11:05	29.0	29.0	29.0	61	17.3	3	9	90	0.00	30.480 
11:10	29.1	29.1	29.1	61	17.4	2	6	90	0.00	30.477 
11:15	29.4	29.4	29.4	61	17.6	2	6	90	0.00	30.477 
11:20	29.7	29.7	29.7	60	17.5	2	5	90	0.00	30.472 
11:25	29.7	29.7	29.7	58	16.8	3	9	90	0.00	30.472 
11:30	29.7	29.7	29.7	60	17.5	2	5	90	0.00	30.472 
11:35	29.8	29.8	29.8	61	18.0	2	7	90	0.00	30.471 
11:40	30.3	30.3	30.3	60	18.1	2	11	90	0.00	30.471 
11:45	30.6	30.6	30.6	61	18.8	2	4	248	0.00	30.471 
11:50	30.4	30.4	30.4	59	17.8	3	7	68	0.00	30.473 
11:55	30.4	30.4	30.4	60	18.2	2	9	112	0.00	30.471 
12:00	30.9	30.9	30.9	60	18.7	2	6	90	0.00	30.469 
12:05	31.3	31.3	31.3	59	18.7	2	7	90	0.00	30.465 
12:10	31.6	31.6	31.6	58	18.5	2	7	90	0.00	30.465 
12:15	31.8	31.8	31.8	60	19.5	2	7	90	0.00	30.463 
12:20	31.8	31.8	31.8	60	19.5	2	5	112	0.00	30.463 
12:25	31.9	31.9	31.9	60	19.6	2	4	112	0.00	30.459 
12:30	32.2	32.2	32.2	59	19.5	1	3	112	0.00	30.457 
12:35	32.4	32.4	32.4	58	19.3	2	6	90	0.00	30.455 
12:40	32.4	32.4	32.4	60	20.1	2	4	68	0.00	30.454 
12:45	32.5	32.5	32.5	58	19.4	2	5	112	0.00	30.450 
12:50	32.4	32.4	32.4	57	18.9	3	7	90	0.00	30.451 
12:55	32.4	32.4	32.4	58	19.3	2	5	90	0.01	30.445 
13:00	32.5	32.5	32.5	57	19.0	2	5	112	0.00	30.439 
13:05	32.4	32.4	32.4	58	19.3	2	7	112	0.00	30.438 
13:10	32.5	32.5	32.5	57	19.0	2	6	68	0.00	30.438 
13:15	32.4	32.4	32.4	58	19.3	2	7	292	0.00	30.439 
13:20	32.4	32.4	32.4	57	18.9	3	6	68	0.00	30.438 
13:25	32.2	32.2	32.2	58	19.1	2	7	90	0.00	30.436 
13:30	32.5	32.5	32.5	59	19.8	2	5	112	0.00	30.433 
13:35	32.5	32.5	32.5	58	19.4	2	9	248	0.00	30.431 
13:40	32.7	32.7	32.7	60	20.4	1	4	112	0.00	30.428 
13:45	33.1	33.1	33.1	61	21.1	1	4	270	0.00	30.424 
13:50	33.5	33.5	33.5	59	20.7	2	5	90	0.00	30.424 
13:55	33.5	33.5	33.5	57	19.9	2	7	112	0.00	30.421 
14:00	33.5	33.5	33.5	58	20.3	2	6	90	0.00	30.417 
14:05	33.4	33.4	33.4	58	20.2	2	5	112	0.00	30.416 
14:10	33.2	33.2	33.2	57	19.6	3	9	90	0.00	30.413 
14:15	33.1	33.1	33.1	57	19.5	2	6	112	0.00	30.411 
14:20	33.1	33.1	33.1	57	19.5	2	5	90	0.00	30.410 
14:25	33.2	33.2	33.2	58	20.0	2	9	90	0.00	30.408 
14:30	33.5	33.5	33.5	56	19.5	2	9	68	0.00	30.403 
14:35	33.5	33.5	33.5	54	18.7	2	6	90	0.00	30.403 
14:40	33.5	33.5	33.5	55	19.1	2	5	135	0.00	30.404 
14:45	33.8	33.8	33.8	57	20.2	2	6	90	0.00	30.403 
14:50	33.8	33.8	33.8	56	19.8	3	6	112	0.00	30.401 
14:55	33.8	33.8	33.8	57	20.2	1	5	90	0.00	30.394 
15:00	33.8	33.8	33.8	57	20.2	3	7	90	0.00	30.391 
15:05	34.0	34.0	34.0	56	20.0	3	6	90	0.00	30.392 
15:10	33.8	33.8	33.8	55	19.4	3	7	90	0.00	30.392 
15:15	34.0	34.0	34.0	56	20.0	2	7	90	0.00	30.389 
15:20	34.1	34.1	34.1	54	19.2	3	6	90	0.00	30.388 
15:25	34.1	34.1	34.1	56	20.1	2	6	112	0.00	30.388 
15:30	34.3	34.3	34.3	56	20.3	2	9	90	0.00	30.385 
15:35	34.6	34.6	34.6	57	21.0	2	5	112	0.00	30.386 
15:40	34.7	34.7	34.7	55	20.2	2	5	112	0.00	30.378 
15:45	34.6	34.6	34.6	55	20.1	2	5	90	0.00	30.374 
15:50	34.4	34.4	34.4	57	20.8	2	5	112	0.00	30.373 
15:55	34.0	34.0	34.0	54	19.1	3	9	90	0.00	30.374 
16:00	33.8	33.8	33.8	55	19.4	2	6	90	0.00	30.372 
16:05	34.0	34.0	34.0	57	20.4	2	4	90	0.00	30.372 
16:10	34.1	34.1	34.1	57	20.5	2	4	112	0.00	30.371 
16:15	34.1	34.1	34.1	58	20.9	1	6	68	0.00	30.369 
16:20	34.3	34.3	34.3	57	20.7	2	6	112	0.00	30.371 
16:25	34.3	34.3	34.3	57	20.7	2	6	90	0.00	30.369 
16:30	34.3	34.3	34.3	56	20.3	2	10	112	0.00	30.358 
16:35	34.1	34.1	34.1	57	20.5	2	4	112	0.00	30.360 
16:40	34.0	34.0	34.0	58	20.8	1	5	112	0.00	30.362 
16:45	33.8	33.8	33.8	58	20.6	2	5	90	0.00	30.358 
16:50	34.0	34.0	34.0	58	20.8	2	6	90	0.00	30.356 
16:55	34.1	34.1	34.1	58	20.9	1	4	90	0.00	30.356 
17:00	34.1	34.1	34.1	57	20.5	3	6	90	0.00	30.356 
17:05	34.1	34.1	34.1	58	20.9	1	4	112	0.00	30.356 
17:10	34.0	34.0	34.0	59	21.2	1	4	135	0.00	30.356 
17:15	33.8	33.8	33.8	60	21.4	2	4	135	0.00	30.354 
17:20	33.5	33.5	33.5	60	21.1	2	6	112	0.00	30.352 
17:25	33.5	33.5	33.5	60	21.1	2	6	90	0.00	30.353 
17:30	33.4	33.4	33.4	60	21.0	2	6	112	0.00	30.352 
17:35	33.2	33.2	33.2	60	20.8	1	5	112	0.00	30.351 
17:40	33.1	33.1	33.1	61	21.1	3	9	90	0.00	30.349 
17:45	32.9	32.9	32.9	62	21.3	2	5	90	0.00	30.345 
17:50	32.7	32.7	32.7	63	21.5	1	6	112	0.00	30.345 
17:55	32.5	32.5	32.5	63	21.3	1	3	135	0.00	30.344 
18:00	32.4	32.4	32.4	64	21.6	1	4	135	0.00	30.345 
18:05	32.2	32.2	32.2	64	21.4	1	5	112	0.00	30.346 
18:10	32.1	32.1	32.1	65	21.7	1	3	112	0.00	30.344 
18:15	31.9	31.9	31.9	66	21.9	0	3	135	0.00	30.343 
18:20	31.8	31.8	31.8	67	22.1	1	2	158	0.00	30.343 
18:25	31.5	31.5	31.5	67	21.8	0	2	158	0.00	30.343 
18:30	31.3	31.3	31.3	68	22.0	1	3	112	0.00	30.341 
18:35	31.3	31.3	31.3	68	22.0	1	3	112	0.00	30.337 
18:40	31.2	31.2	31.2	69	22.2	1	2	135	0.00	30.332 
18:45	31.0	31.0	31.0	70	22.4	1	5	90	0.00	30.331 
18:50	31.0	31.0	31.0	69	22.0	1	4	112	0.00	30.334 
18:55	30.9	30.9	30.9	69	21.9	1	2	158	0.00	30.335 
19:00	30.9	30.9	30.9	69	21.9	1	3	135	0.00	30.335 
19:05	30.9	30.9	30.9	69	21.9	1	3	112	0.00	30.335 
19:10	30.7	30.7	30.7	69	21.8	1	3	112	0.00	30.339 
19:15	30.7	30.7	30.7	68	21.4	0	2	135	0.00	30.337 
19:20	30.6	30.6	30.6	69	21.7	1	3	135	0.00	30.336 
19:25	30.4	30.4	30.4	69	21.5	0	2	158	0.00	30.338 
19:30	30.3	30.3	30.3	69	21.4	0	2	158	0.00	30.341 
19:35	30.1	30.1	30.1	70	21.5	0	1	158	0.00	30.343 
19:40	30.0	30.0	30.0	70	21.4	0	1	158	0.00	30.342 
19:45	29.8	29.8	29.8	70	21.2	0	0	---	0.00	30.342 
19:50	29.7	29.7	29.7	71	21.5	0	1	158	0.00	30.340 
19:55	29.5	29.5	29.5	71	21.3	0	1	158	0.00	30.337 
20:00	29.5	29.5	29.5	72	21.6	0	1	158	0.00	30.341 
20:05	29.5	29.5	29.5	72	21.6	0	1	158	0.00	30.335 
20:10	29.5	29.5	29.5	72	21.6	0	1	158	0.00	30.336 
20:15	29.5	29.5	29.5	72	21.6	0	1	158	0.00	30.335 
20:20	29.5	29.5	29.5	72	21.6	0	1	158	0.00	30.331 
20:25	29.4	29.4	29.4	72	21.5	0	1	158	0.00	30.329 
20:30	29.3	29.3	29.3	73	21.7	0	1	158	0.00	30.328 
20:35	29.1	29.1	29.1	73	21.5	0	1	158	0.00	30.327 
20:40	29.1	29.1	29.1	73	21.5	0	2	158	0.00	30.327 
20:45	29.1	29.1	29.1	73	21.5	0	1	90	0.00	30.326 
20:50	29.0	29.0	29.0	73	21.4	0	2	90	0.00	30.326 
20:55	29.0	29.0	29.0	73	21.4	0	2	90	0.00	30.325 
21:00	29.0	29.0	29.0	73	21.4	0	2	90	0.00	30.326 
21:05	29.1	29.1	29.1	74	21.9	1	2	90	0.00	30.319 
21:10	29.0	29.0	29.0	74	21.8	0	2	90	0.00	30.319 
21:15	29.0	29.0	29.0	74	21.8	0	2	90	0.00	30.318 
21:20	29.0	29.0	29.0	75	22.1	0	2	90	0.00	30.319 
21:25	28.8	28.8	28.8	75	21.9	0	2	90	0.00	30.320 
21:30	28.8	28.8	28.8	76	22.2	1	2	90	0.00	30.318 
21:35	28.7	28.7	28.7	76	22.1	1	3	90	0.00	30.319 
21:40	28.7	28.7	28.7	77	22.4	1	2	90	0.00	30.318 
21:45	28.5	28.5	28.5	77	22.2	0	2	90	0.00	30.317 
21:50	28.4	28.4	28.4	77	22.1	0	1	90	0.00	30.318 
21:55	28.2	28.2	28.2	78	22.2	0	2	90	0.00	30.318 
22:00	28.1	28.1	28.1	78	22.1	0	1	90	0.00	30.320 
22:05	28.1	28.1	28.1	78	22.1	0	1	90	0.00	30.318 
22:10	27.9	27.9	27.9	78	21.9	0	1	90	0.00	30.316 
22:15	27.9	27.9	27.9	78	21.9	0	1	90	0.00	30.315 
22:20	27.9	27.9	27.9	78	21.9	0	1	90	0.00	30.314 
22:25	27.8	27.8	27.8	79	22.2	0	1	90	0.00	30.314 
22:30	27.8	27.8	27.8	79	22.2	0	1	90	0.00	30.314 
22:35	27.8	27.8	27.8	79	22.2	0	1	90	0.00	30.314 
22:40	27.8	27.8	27.8	79	22.2	0	1	90	0.00	30.312 
22:45	27.8	27.8	27.8	79	22.2	0	1	90	0.00	30.310 
22:50	27.8	27.8	27.8	79	22.2	0	1	90	0.00	30.310 
22:55	27.8	27.8	27.8	79	22.2	0	1	90	0.00	30.309 
23:00	27.8	27.8	27.8	79	22.2	0	1	90	0.00	30.306 
23:05	27.8	27.8	27.8	79	22.2	0	1	90	0.00	30.300 
23:10	27.8	27.8	27.8	79	22.2	0	2	90	0.00	30.299 
23:15	27.8	27.8	27.8	79	22.2	0	2	135	0.00	30.299 
23:20	27.9	27.9	27.9	79	22.2	0	1	135	0.00	30.298 
23:25	27.9	27.9	27.9	78	21.9	0	1	135	0.00	30.298 
23:30	28.1	28.1	28.1	78	22.1	0	1	135	0.00	30.296 
23:35	28.1	28.1	28.1	77	21.8	0	2	135	0.00	30.297 
23:40	28.1	28.1	28.1	77	21.8	0	1	135	0.00	30.296 
23:45	28.2	28.2	28.2	77	21.9	0	1	135	0.00	30.295 
23:50	28.2	28.2	28.2	77	21.9	0	2	135	0.00	30.296 
23:55	28.2	28.2	28.2	76	21.6	0	2	135	0.00	30.295 

CoCoRaHS
IN-AL-39
A2 Web Hosting
Creative Commons License
GoDaddy
search engine by freefind advanced

loaded 2018-11-14 03:33:15 • last modified 2010-11-18 10:43:29
Privacy PolicyDisclaimer
• wx.awcolley.com is powered by PmWiki v.2002016 •
• all content (unless otherwise noted) © 2018 A W Colley